ADDS METAR Data INFO
IDs: Format: Raw Decoded Include TAF

Data at: 2304 UTC 16 Jan 2018

KLWS 162256Z 00000KT 10SM FEW050 08/06 A3031 RMK AO2 SLP272 T00830056
KLWS 162156Z 00000KT 10SM BKN055 08/06 A3030 RMK AO2 SLP270 T00780056
KLWS 162056Z 04005KT 10SM SCT080 08/04 A3029 RMK AO2 SLP265 60005 T00780044 55008
KLWS 161956Z 06006KT 10SM FEW080 06/04 A3029 RMK AO2 SLP264 T00610044
KLWS 161904Z 00000KT 4SM BR FEW002 BKN065 OVC080 04/04 A3031 RMK AO2 BCFG ALQDS T00440039
KLWS 161859Z 32006KT 1/4SM BR FEW002 FEW043 OVC075 05/04 A3032 RMK AO2 SFC VIS 5 T00500039
KLWS 161856Z 32005KT 10SM SCT065 OVC080 05/04 A3032 RMK AO2 RAE51 SLP274 P0005 T00500039
KLWS 161756Z 15004KT 6SM -RA BR OVC040 04/03 A3032 RMK AO2 SLP275 P0009 60009 T00390033 10050 20022 51055
KLWS 161656Z 00000KT 10SM -RA BKN050 BKN070 OVC080 05/02 A3028 RMK AO2 RAB45 PRESRR SLP264 P0000 T00500022
KLWS 161556Z 16007KT 10SM SCT100 OVC120 03/02 A3020 RMK AO2 SLP236 T00330017
KLWS 161456Z 25004KT 10SM BKN100 03/02 A3015 RMK AO2 SLP217 T00280022 53008
KLWS 161356Z AUTO 08003KT 10SM CLR 04/02 A3012 RMK AO2 SLP208 T00440017
KLWS 161256Z AUTO 12005KT 10SM SCT120 04/02 A3011 RMK AO2 SLP204 T00440017
KLWS 161156Z AUTO 09004KT 10SM CLR 03/02 A3012 RMK AO2 SLP209 T00280017 10078 20022 50001
KLWS 161056Z AUTO 14007KT 10SM CLR 03/02 A3013 RMK AO2 SLP211 T00280017
KLWS 160956Z AUTO 12004KT 10SM CLR 03/02 A3013 RMK AO2 SLP211 T00330017
KLWS 160856Z AUTO 00000KT 10SM CLR 04/02 A3012 RMK AO2 SLP207 T00440017 51008
KLWS 160756Z AUTO 00000KT 10SM CLR 07/02 A3012 RMK AO2 SLP204 T00670022 401000000
KLWS 160656Z AUTO 00000KT 10SM CLR 07/02 A3011 RMK AO2 SLP200 T00670022
KLWS 160556Z 11007KT 10SM CLR 07/03 A3009 RMK AO2 SLP197 T00720028 10089 20061 56009
KLWS 160456Z 08011KT 10SM CLR 06/03 A3010 RMK AO2 SLP203 T00610033
KLWS 160356Z 09007KT 10SM CLR 08/03 A3011 RMK AO2 SLP203 T00780033
KLWS 160256Z 09008KT 10SM CLR 07/03 A3012 RMK AO2 SLP211 T00720033 56018
KLWS 160156Z 10007KT 10SM CLR 08/04 A3012 RMK AO2 SLP209 T00830039
KLWS 160056Z 08008KT 10SM CLR 08/04 A3015 RMK AO2 SLP220 T00780044
KLWS 152356Z 00000KT 10SM CLR 08/04 A3018 RMK AO2 SLP227 T00780044 10100 20067 56005
KLWS 152256Z 29004KT 10SM CLR 09/04 A3018 RMK AO2 SLP229 T00890044
KLWS 152156Z 29004KT 10SM CLR 09/05 A3018 RMK AO2 SLP229 T00940050
KLWS 152056Z 26006KT 10SM CLR 09/04 A3019 RMK AO2 SLP232 T00890044 56023
KLWS 151956Z 07006KT 10SM CLR 09/04 A3021 RMK AO2 SLP236 T00890039
KLWS 151856Z 08008KT 10SM CLR 08/04 A3024 RMK AO2 SLP248 T00830039
KLWS 151756Z 07011KT 10SM CLR 07/03 A3026 RMK AO2 SLP257 FG WNW T00670028 10067 20000 55001
KLWS 151656Z 08010KT 10SM CLR 04/03 A3026 RMK AO2 SLP255 T00440028
KLWS 151556Z 08010KT 10SM CLR 03/02 A3025 RMK AO2 SLP255 T00280022
KLWS 151526Z 18004KT 10SM FEW001 02/01 A3026 RMK AO2 T00170011
KLWS 151519Z 00000KT 1 3/4SM BR SCT001 02/02 A3027 RMK AO2 T00170017
KLWS 151504Z 00000KT 1SM BR VV001 01/01 A3026 RMK AO2 T00060006
KLWS 151456Z 00000KT 1/4SM FG VV001 01/00 A3026 RMK AO2 SLP260 T00060000 56004
KLWS 151452Z 00000KT 1/4SM FG VV001 00/00 A3026 RMK AO2
KLWS 151448Z 00000KT 1SM BR VV001 01/01 A3027 RMK AO2 T00060006
KLWS 151356Z 11003KT 10SM FEW003 02/02 A3027 RMK AO2 SLP260 T00170017
KLWS 151354Z 11003KT 10SM SCT003 02/02 A3027 RMK AO2
KLWS 151343Z AUTO 10003KT 3SM BR BKN003 02/02 A3027 RMK AO2 T00170017
KLWS 151341Z AUTO 09003KT 1 1/2SM BR BKN003 02/02 A3027 RMK AO2 T00170017
KLWS 151311Z AUTO 11003KT 1/2SM FG VV003 02/02 A3028 RMK AO2 T00170017
KLWS 151256Z AUTO 10003KT 1/4SM FG VV002 02/02 A3028 RMK AO2 SLP261 T00170017
KLWS 151245Z AUTO 12003KT 1/4SM FG VV002 02/02 A3028 RMK AO2 T00170017
KLWS 151233Z AUTO 14004KT 1/2SM FG VV002 02/02 A3028 RMK AO2 T00170017
KLWS 151156Z AUTO 15003KT 1/4SM FG VV003 02/02 A3029 RMK AO2 SLP265 T00170017 10050 20006 58004
KLWS 151143Z AUTO 15004KT 1/2SM FG VV004 01/01 A3030 RMK AO2 T00110011